sensor_id;sensor_type;location;lat;lon;timestamp;pressure;altitude;pressure_sealevel;temperature;humidity
57056;BME280;42945;51.718;5.324;2022-07-10T00:01:19;102458.47;;;11.26;82.96
57056;BME280;42945;51.718;5.324;2022-07-10T00:03:45;102430.41;;;11.43;82.37
57056;BME280;42945;51.718;5.324;2022-07-10T00:06:10;102557.41;;;12.09;81.94
57056;BME280;42945;51.718;5.324;2022-07-10T00:08:35;102574.31;;;12.08;82.47
57056;BME280;42945;51.718;5.324;2022-07-10T00:11:02;102431.88;;;11.52;81.90
57056;BME280;42945;51.718;5.324;2022-07-10T00:13:27;102577.22;;;12.26;82.82
57056;BME280;42945;51.718;5.324;2022-07-10T00:15:53;102499.78;;;12.33;82.51
57056;BME280;42945;51.718;5.324;2022-07-10T00:18:18;102531.81;;;12.30;82.55
57056;BME280;42945;51.718;5.324;2022-07-10T00:20:43;102415.59;;;11.61;82.21
57056;BME280;42945;51.718;5.324;2022-07-10T00:23:08;102509.63;;;12.31;83.45
57056;BME280;42945;51.718;5.324;2022-07-10T00:25:34;102524.84;;;12.28;82.13
57056;BME280;42945;51.718;5.324;2022-07-10T00:28:00;102510.50;;;12.32;82.06
57056;BME280;42945;51.718;5.324;2022-07-10T00:30:25;102409.81;;;11.50;82.90
57056;BME280;42945;51.718;5.324;2022-07-10T00:32:51;102537.03;;;12.33;83.10
57056;BME280;42945;51.718;5.324;2022-07-10T00:35:17;102435.91;;;11.62;83.17
57056;BME280;42945;51.718;5.324;2022-07-10T00:37:42;102383.09;;;11.53;83.46
57056;BME280;42945;51.718;5.324;2022-07-10T00:40:08;102548.94;;;12.23;82.64
57056;BME280;42945;51.718;5.324;2022-07-10T00:42:34;102471.34;;;12.12;83.06
57056;BME280;42945;51.718;5.324;2022-07-10T00:44:59;102521.41;;;12.00;83.33
57056;BME280;42945;51.718;5.324;2022-07-10T00:47:24;102507.94;;;12.05;85.24
57056;BME280;42945;51.718;5.324;2022-07-10T00:49:50;104283.84;;;22.50;91.59
57056;BME280;42945;51.718;5.324;2022-07-10T00:52:17;102506.91;;;11.84;83.67
57056;BME280;42945;51.718;5.324;2022-07-10T00:54:47;102489.09;;;11.86;84.77
57056;BME280;42945;51.718;5.324;2022-07-10T00:57:14;102551.19;;;11.85;84.27
57056;BME280;42945;51.718;5.324;2022-07-10T00:59:40;102536.22;;;11.82;85.82
57056;BME280;42945;51.718;5.324;2022-07-10T01:02:06;102520.53;;;11.75;86.55
57056;BME280;42945;51.718;5.324;2022-07-10T01:04:32;102501.44;;;11.63;86.72
57056;BME280;42945;51.718;5.324;2022-07-10T01:06:58;102520.06;;;11.63;85.87
57056;BME280;42945;51.718;5.324;2022-07-10T01:09:23;102352.75;;;10.87;85.60
57056;BME280;42945;51.718;5.324;2022-07-10T01:11:49;102460.06;;;11.56;87.45
57056;BME280;42945;51.718;5.324;2022-07-10T01:14:15;102452.53;;;11.44;86.87
57056;BME280;42945;51.718;5.324;2022-07-10T01:16:41;102373.75;;;10.93;88.03
57056;BME280;42945;51.718;5.324;2022-07-10T01:19:06;102500.47;;;11.66;86.64
57056;BME280;42945;51.718;5.324;2022-07-10T01:21:33;102497.16;;;11.59;87.55
57056;BME280;42945;51.718;5.324;2022-07-10T01:24:00;102448.72;;;11.51;86.68
57056;BME280;42945;51.718;5.324;2022-07-10T01:26:29;102489.59;;;11.22;87.08
57056;BME280;42945;51.718;5.324;2022-07-10T01:28:56;102498.34;;;11.51;85.40
57056;BME280;42945;51.718;5.324;2022-07-10T01:31:26;102430.25;;;11.48;87.35
57056;BME280;42945;51.718;5.324;2022-07-10T01:33:52;102469.94;;;11.53;86.31
57056;BME280;42945;51.718;5.324;2022-07-10T01:36:18;102363.63;;;10.79;87.69
57056;BME280;42945;51.718;5.324;2022-07-10T01:38:44;102372.66;;;10.73;87.35
57056;BME280;42945;51.718;5.324;2022-07-10T01:41:09;102431.38;;;11.41;88.11
57056;BME280;42945;51.718;5.324;2022-07-10T01:43:35;102473.16;;;11.36;87.50
57056;BME280;42945;51.718;5.324;2022-07-10T01:46:05;102480.44;;;11.31;87.66
57056;BME280;42945;51.718;5.324;2022-07-10T01:48:30;102484.22;;;11.23;88.79
57056;BME280;42945;51.718;5.324;2022-07-10T01:50:56;102498.44;;;11.22;88.87
57056;BME280;42945;51.718;5.324;2022-07-10T01:53:21;102255.00;;;9.94;90.01
57056;BME280;42945;51.718;5.324;2022-07-10T01:55:46;102468.28;;;11.23;89.05
57056;BME280;42945;51.718;5.324;2022-07-10T01:58:12;102508.03;;;11.27;89.03
57056;BME280;42945;51.718;5.324;2022-07-10T02:00:37;102513.28;;;11.28;89.67
57056;BME280;42945;51.718;5.324;2022-07-10T02:03:03;102480.19;;;11.38;90.23
57056;BME280;42945;51.718;5.324;2022-07-10T02:05:46;102457.66;;;11.23;90.12
57056;BME280;42945;51.718;5.324;2022-07-10T02:08:12;102394.38;;;10.58;89.55
57056;BME280;42945;51.718;5.324;2022-07-10T02:10:38;102488.81;;;11.18;90.93
57056;BME280;42945;51.718;5.324;2022-07-10T02:13:03;102489.22;;;11.33;91.44
57056;BME280;42945;51.718;5.324;2022-07-10T02:15:28;102470.63;;;11.33;91.26
57056;BME280;42945;51.718;5.324;2022-07-10T02:18:26;102328.91;;;10.58;90.67
57056;BME280;42945;51.718;5.324;2022-07-10T02:20:51;102455.00;;;11.23;90.52
57056;BME280;42945;51.718;5.324;2022-07-10T02:23:17;102345.59;;;10.62;90.52
57056;BME280;42945;51.718;5.324;2022-07-10T02:25:43;102497.97;;;11.36;91.07
57056;BME280;42945;51.718;5.324;2022-07-10T02:28:08;102513.91;;;11.36;90.17
57056;BME280;42945;51.718;5.324;2022-07-10T02:30:34;102352.41;;;10.71;91.07
57056;BME280;42945;51.718;5.324;2022-07-10T02:32:59;102479.09;;;11.44;89.75
57056;BME280;42945;51.718;5.324;2022-07-10T02:35:25;102439.63;;;11.33;90.80
57056;BME280;42945;51.718;5.324;2022-07-10T02:37:50;102484.81;;;11.32;92.05
57056;BME280;42945;51.718;5.324;2022-07-10T02:40:15;102379.19;;;10.63;91.55
57056;BME280;42945;51.718;5.324;2022-07-10T02:42:40;102486.41;;;11.37;89.94
57056;BME280;42945;51.718;5.324;2022-07-10T02:45:06;102465.59;;;11.50;90.40
57056;BME280;42945;51.718;5.324;2022-07-10T02:47:32;102473.97;;;11.38;91.93
57056;BME280;42945;51.718;5.324;2022-07-10T02:49:57;102463.53;;;11.33;91.49
57056;BME280;42945;51.718;5.324;2022-07-10T02:52:22;102297.22;;;10.55;90.56
57056;BME280;42945;51.718;5.324;2022-07-10T02:55:03;102340.22;;;10.65;90.42
57056;BME280;42945;51.718;5.324;2022-07-10T02:57:28;102491.97;;;11.30;92.13
57056;BME280;42945;51.718;5.324;2022-07-10T02:59:54;102453.47;;;11.16;90.61
57056;BME280;42945;51.718;5.324;2022-07-10T03:02:19;102485.91;;;11.26;90.97
57056;BME280;42945;51.718;5.324;2022-07-10T03:04:44;102443.63;;;11.20;91.46
57056;BME280;42945;51.718;5.324;2022-07-10T03:07:10;102448.88;;;11.21;91.70
57056;BME280;42945;51.718;5.324;2022-07-10T03:09:35;102308.91;;;10.50;91.68
57056;BME280;42945;51.718;5.324;2022-07-10T03:12:01;102493.81;;;11.28;90.96
57056;BME280;42945;51.718;5.324;2022-07-10T03:14:26;102469.09;;;11.26;90.69
57056;BME280;42945;51.718;5.324;2022-07-10T03:16:51;102452.66;;;11.14;91.79
57056;BME280;42945;51.718;5.324;2022-07-10T03:19:17;102471.47;;;11.08;91.26
57056;BME280;42945;51.718;5.324;2022-07-10T03:21:45;102494.06;;;11.20;91.92
57056;BME280;42945;51.718;5.324;2022-07-10T03:24:11;102360.75;;;10.58;91.00
57056;BME280;42945;51.718;5.324;2022-07-10T03:26:36;102341.28;;;10.59;91.03
57056;BME280;42945;51.718;5.324;2022-07-10T03:29:02;102297.81;;;10.63;90.75
57056;BME280;42945;51.718;5.324;2022-07-10T03:31:27;102342.97;;;10.62;90.29
57056;BME280;42945;51.718;5.324;2022-07-10T03:33:52;102461.84;;;11.31;91.10
57056;BME280;42945;51.718;5.324;2022-07-10T03:36:18;102453.84;;;11.32;91.50
57056;BME280;42945;51.718;5.324;2022-07-10T03:38:43;102337.66;;;10.62;90.77
57056;BME280;42945;51.718;5.324;2022-07-10T03:41:11;102289.91;;;10.62;90.67
57056;BME280;42945;51.718;5.324;2022-07-10T03:43:36;102340.75;;;10.75;90.64
57056;BME280;42945;51.718;5.324;2022-07-10T03:46:01;102452.63;;;11.41;90.48
57056;BME280;42945;51.718;5.324;2022-07-10T03:48:26;102424.59;;;11.57;89.81
57056;BME280;42945;51.718;5.324;2022-07-10T03:50:52;102442.31;;;11.57;89.48
57056;BME280;42945;51.718;5.324;2022-07-10T03:53:18;102319.59;;;10.98;89.16
57056;BME280;42945;51.718;5.324;2022-07-10T03:55:43;102442.75;;;11.70;89.01
57056;BME280;42945;51.718;5.324;2022-07-10T03:58:08;102457.84;;;11.69;88.14
57056;BME280;42945;51.718;5.324;2022-07-10T04:00:34;102327.06;;;11.12;89.55
57056;BME280;42945;51.718;5.324;2022-07-10T04:03:07;102430.03;;;11.78;88.71
57056;BME280;42945;51.718;5.324;2022-07-10T04:05:33;102437.28;;;11.98;88.70
57056;BME280;42945;51.718;5.324;2022-07-10T04:07:59;102438.50;;;11.89;88.02
57056;BME280;42945;51.718;5.324;2022-07-10T04:10:26;102344.22;;;11.27;86.76
57056;BME280;42945;51.718;5.324;2022-07-10T04:12:52;102444.25;;;12.02;87.54
57056;BME280;42945;51.718;5.324;2022-07-10T04:15:21;102458.06;;;12.12;87.88
57056;BME280;42945;51.718;5.324;2022-07-10T04:17:47;102450.28;;;12.06;87.12
57056;BME280;42945;51.718;5.324;2022-07-10T04:20:14;102341.88;;;11.43;85.94
57056;BME280;42945;51.718;5.324;2022-07-10T04:22:39;102486.50;;;12.33;87.46
57056;BME280;42945;51.718;5.324;2022-07-10T04:25:05;102461.84;;;12.28;86.54
57056;BME280;42945;51.718;5.324;2022-07-10T04:27:31;102348.47;;;11.56;86.85
57056;BME280;42945;51.718;5.324;2022-07-10T04:29:56;102445.63;;;12.34;86.29
57056;BME280;42945;51.718;5.324;2022-07-10T04:32:22;102355.97;;;11.69;86.53
57056;BME280;42945;51.718;5.324;2022-07-10T04:34:47;102740.81;;;12.39;86.69
57056;BME280;42945;51.718;5.324;2022-07-10T04:37:12;102419.47;;;12.46;86.21
57056;BME280;42945;51.718;5.324;2022-07-10T04:39:38;102341.66;;;11.96;85.48
57056;BME280;42945;51.718;5.324;2022-07-10T04:42:08;102434.03;;;12.59;85.59
57056;BME280;42945;51.718;5.324;2022-07-10T04:44:34;102395.00;;;12.58;85.79
57056;BME280;42945;51.718;5.324;2022-07-10T04:47:00;102331.69;;;12.01;84.29
57056;BME280;42945;51.718;5.324;2022-07-10T04:49:25;102399.00;;;12.70;84.66
57056;BME280;42945;51.718;5.324;2022-07-10T04:51:51;102418.03;;;12.81;84.89
57056;BME280;42945;51.718;5.324;2022-07-10T04:54:17;102338.44;;;12.10;84.58
57056;BME280;42945;51.718;5.324;2022-07-10T04:56:42;102384.34;;;12.80;84.30
57056;BME280;42945;51.718;5.324;2022-07-10T04:59:08;102565.03;;;13.55;84.05
57056;BME280;42945;51.718;5.324;2022-07-10T05:01:34;102423.59;;;12.97;83.63
57056;BME280;42945;51.718;5.324;2022-07-10T05:03:59;102355.88;;;12.39;84.16
57056;BME280;42945;51.718;5.324;2022-07-10T05:06:25;102414.78;;;13.15;84.82
57056;BME280;42945;51.718;5.324;2022-07-10T05:08:50;102400.44;;;13.40;82.66
57056;BME280;42945;51.718;5.324;2022-07-10T05:11:15;102476.38;;;13.50;82.45
57056;BME280;42945;51.718;5.324;2022-07-10T05:13:41;102349.88;;;12.97;81.71
57056;BME280;42945;51.718;5.324;2022-07-10T05:16:09;102464.06;;;13.87;81.23
57056;BME280;42945;51.718;5.324;2022-07-10T05:18:34;102415.56;;;13.98;81.25
57056;BME280;42945;51.718;5.324;2022-07-10T05:21:00;102634.19;;;14.61;79.40
57056;BME280;42945;51.718;5.324;2022-07-10T05:23:25;102340.06;;;13.39;80.10
57056;BME280;42945;51.718;5.324;2022-07-10T05:25:50;102455.13;;;14.07;78.71
57056;BME280;42945;51.718;5.324;2022-07-10T05:28:15;102416.13;;;13.86;79.26
57056;BME280;42945;51.718;5.324;2022-07-10T05:30:41;102447.78;;;14.31;78.62
57056;BME280;42945;51.718;5.324;2022-07-10T05:33:07;102463.56;;;14.17;78.80
57056;BME280;42945;51.718;5.324;2022-07-10T05:35:33;102444.09;;;14.34;77.91
57056;BME280;42945;51.718;5.324;2022-07-10T05:37:58;102473.41;;;14.91;77.27
57056;BME280;42945;51.718;5.324;2022-07-10T05:40:24;102454.84;;;14.70;76.62
57056;BME280;42945;51.718;5.324;2022-07-10T05:42:49;102441.75;;;14.83;76.22
57056;BME280;42945;51.718;5.324;2022-07-10T05:45:14;102441.34;;;14.73;75.97
57056;BME280;42945;51.718;5.324;2022-07-10T05:47:40;102439.53;;;14.55;76.41
57056;BME280;42945;51.718;5.324;2022-07-10T05:50:05;102444.88;;;14.74;76.51
57056;BME280;42945;51.718;5.324;2022-07-10T05:52:31;102487.28;;;14.80;76.63
57056;BME280;42945;51.718;5.324;2022-07-10T05:54:57;102425.88;;;14.98;75.93
57056;BME280;42945;51.718;5.324;2022-07-10T05:57:23;102452.88;;;14.74;75.32
57056;BME280;42945;51.718;5.324;2022-07-10T05:59:48;102447.91;;;14.66;75.18
57056;BME280;42945;51.718;5.324;2022-07-10T06:02:14;102317.78;;;14.16;74.82
57056;BME280;42945;51.718;5.324;2022-07-10T06:04:40;102602.63;;;14.69;76.23
57056;BME280;42945;51.718;5.324;2022-07-10T06:07:05;102345.19;;;14.01;75.06
57056;BME280;42945;51.718;5.324;2022-07-10T06:09:30;102399.59;;;14.71;75.92
57056;BME280;42945;51.718;5.324;2022-07-10T06:11:56;102450.31;;;14.90;75.51
57056;BME280;42945;51.718;5.324;2022-07-10T06:14:21;102393.66;;;14.83;75.51
57056;BME280;42945;51.718;5.324;2022-07-10T06:16:46;102453.06;;;15.06;75.46
57056;BME280;42945;51.718;5.324;2022-07-10T06:19:12;102456.91;;;15.18;75.05
57056;BME280;42945;51.718;5.324;2022-07-10T06:21:37;102446.06;;;15.03;76.08
57056;BME280;42945;51.718;5.324;2022-07-10T06:24:03;102337.03;;;14.40;75.21
57056;BME280;42945;51.718;5.324;2022-07-10T06:26:28;102438.06;;;15.03;75.08
57056;BME280;42945;51.718;5.324;2022-07-10T06:28:53;102454.25;;;15.18;76.08
57056;BME280;42945;51.718;5.324;2022-07-10T06:31:19;102356.06;;;14.51;74.54
57056;BME280;42945;51.718;5.324;2022-07-10T06:33:44;102400.69;;;15.36;74.45
57056;BME280;42945;51.718;5.324;2022-07-10T06:36:09;102410.53;;;15.36;74.32
57056;BME280;42945;51.718;5.324;2022-07-10T06:38:35;102480.16;;;15.50;74.56
57056;BME280;42945;51.718;5.324;2022-07-10T06:41:00;102335.38;;;14.91;74.64
57056;BME280;42945;51.718;5.324;2022-07-10T06:43:25;102445.63;;;15.63;73.52
57056;BME280;42945;51.718;5.324;2022-07-10T06:45:52;102441.19;;;15.29;73.99
57056;BME280;42945;51.718;5.324;2022-07-10T06:48:17;102433.03;;;15.65;74.11
57056;BME280;42945;51.718;5.324;2022-07-10T06:50:44;102312.25;;;15.41;72.68
57056;BME280;42945;51.718;5.324;2022-07-10T06:53:09;102463.22;;;16.50;71.95
57056;BME280;42945;51.718;5.324;2022-07-10T06:55:34;102475.63;;;16.03;71.56
57056;BME280;42945;51.718;5.324;2022-07-10T06:58:00;102494.47;;;16.33;72.13
57056;BME280;42945;51.718;5.324;2022-07-10T07:00:26;102344.31;;;15.90;70.89
57056;BME280;42945;51.718;5.324;2022-07-10T07:02:52;102320.06;;;16.09;69.16
57056;BME280;42945;51.718;5.324;2022-07-10T07:05:17;102355.38;;;15.84;70.31
57056;BME280;42945;51.718;5.324;2022-07-10T07:07:43;102433.53;;;16.69;71.18
57056;BME280;42945;51.718;5.324;2022-07-10T07:13:27;102356.34;;;16.76;68.77
57056;BME280;42945;51.718;5.324;2022-07-10T07:15:52;102433.75;;;16.96;69.07
57056;BME280;42945;51.718;5.324;2022-07-10T07:18:25;102469.69;;;17.38;67.28
57056;BME280;42945;51.718;5.324;2022-07-10T07:21:02;102418.63;;;17.25;67.41
57056;BME280;42945;51.718;5.324;2022-07-10T07:23:46;102407.41;;;17.19;67.19
57056;BME280;42945;51.718;5.324;2022-07-10T07:26:12;102459.22;;;16.73;69.26
57056;BME280;42945;51.718;5.324;2022-07-10T07:28:37;102490.16;;;16.95;68.74
57056;BME280;42945;51.718;5.324;2022-07-10T07:31:03;102489.38;;;16.61;69.53
57056;BME280;42945;51.718;5.324;2022-07-10T07:33:29;102478.06;;;16.40;69.56
57056;BME280;42945;51.718;5.324;2022-07-10T07:35:54;102446.44;;;16.62;69.51
57056;BME280;42945;51.718;5.324;2022-07-10T07:38:20;102364.69;;;16.25;69.61
57056;BME280;42945;51.718;5.324;2022-07-10T07:40:45;102421.25;;;16.97;69.30
57056;BME280;42945;51.718;5.324;2022-07-10T07:43:10;102445.25;;;16.98;69.40
57056;BME280;42945;51.718;5.324;2022-07-10T07:45:36;102434.91;;;16.92;69.66
57056;BME280;42945;51.718;5.324;2022-07-10T07:48:02;102335.31;;;16.23;69.84
57056;BME280;42945;51.718;5.324;2022-07-10T07:50:30;102446.31;;;16.80;69.89
57056;BME280;42945;51.718;5.324;2022-07-10T07:52:57;102419.59;;;16.94;69.90
57056;BME280;42945;51.718;5.324;2022-07-10T07:55:23;102492.56;;;16.99;69.86
57056;BME280;42945;51.718;5.324;2022-07-10T07:57:51;102456.16;;;17.25;69.47
57056;BME280;42945;51.718;5.324;2022-07-10T08:00:18;102413.47;;;16.92;69.69
57056;BME280;42945;51.718;5.324;2022-07-10T08:02:46;102467.75;;;16.96;70.09
57056;BME280;42945;51.718;5.324;2022-07-10T08:05:12;102461.22;;;16.85;70.90
57056;BME280;42945;51.718;5.324;2022-07-10T08:07:40;102560.50;;;17.44;70.16
57056;BME280;42945;51.718;5.324;2022-07-10T08:10:11;102452.47;;;16.82;70.27
57056;BME280;42945;51.718;5.324;2022-07-10T08:12:38;102460.00;;;16.43;71.58
57056;BME280;42945;51.718;5.324;2022-07-10T08:15:06;102459.97;;;16.91;69.52
57056;BME280;42945;51.718;5.324;2022-07-10T08:17:31;102456.47;;;17.35;69.39
57056;BME280;42945;51.718;5.324;2022-07-10T08:19:58;102447.00;;;17.44;68.28
57056;BME280;42945;51.718;5.324;2022-07-10T08:22:23;102432.97;;;17.24;69.59
57056;BME280;42945;51.718;5.324;2022-07-10T08:24:49;102481.09;;;17.56;68.72
57056;BME280;42945;51.718;5.324;2022-07-10T08:27:14;102312.16;;;16.38;69.83
57056;BME280;42945;51.718;5.324;2022-07-10T08:29:41;102232.19;;;16.02;68.85
57056;BME280;42945;51.718;5.324;2022-07-10T08:32:06;102346.69;;;17.03;70.24
57056;BME280;42945;51.718;5.324;2022-07-10T08:34:31;102305.41;;;16.91;68.09
57056;BME280;42945;51.718;5.324;2022-07-10T08:37:00;102470.22;;;17.29;67.92
57056;BME280;42945;51.718;5.324;2022-07-10T08:39:26;102433.16;;;17.21;69.02
57056;BME280;42945;51.718;5.324;2022-07-10T08:41:51;102410.69;;;17.24;69.81
57056;BME280;42945;51.718;5.324;2022-07-10T08:44:17;102423.94;;;16.65;70.78
57056;BME280;42945;51.718;5.324;2022-07-10T08:46:44;102315.47;;;16.58;69.24
57056;BME280;42945;51.718;5.324;2022-07-10T08:49:10;102463.47;;;16.45;71.50
57056;BME280;42945;51.718;5.324;2022-07-10T08:51:40;102411.75;;;16.91;70.54
57056;BME280;42945;51.718;5.324;2022-07-10T08:54:07;102293.03;;;15.98;71.42
57056;BME280;42945;51.718;5.324;2022-07-10T08:56:33;102417.56;;;16.67;71.19
57056;BME280;42945;51.718;5.324;2022-07-10T08:59:00;102450.03;;;16.77;71.38
57056;BME280;42945;51.718;5.324;2022-07-10T09:01:27;102465.22;;;17.08;69.99
57056;BME280;42945;51.718;5.324;2022-07-10T09:03:52;102424.34;;;17.19;69.48
57056;BME280;42945;51.718;5.324;2022-07-10T09:06:18;102456.66;;;17.32;67.75
57056;BME280;42945;51.718;5.324;2022-07-10T09:09:04;102424.91;;;17.10;69.04
57056;BME280;42945;51.718;5.324;2022-07-10T09:11:31;102419.03;;;17.03;69.09
57056;BME280;42945;51.718;5.324;2022-07-10T09:13:59;102429.81;;;17.18;67.74
57056;BME280;42945;51.718;5.324;2022-07-10T09:16:26;102433.53;;;17.15;68.65
57056;BME280;42945;51.718;5.324;2022-07-10T09:18:53;102337.47;;;16.93;67.45
57056;BME280;42945;51.718;5.324;2022-07-10T09:21:19;102397.47;;;17.49;67.35
57056;BME280;42945;51.718;5.324;2022-07-10T09:23:45;102479.63;;;18.09;66.63
57056;BME280;42945;51.718;5.324;2022-07-10T09:26:11;102417.06;;;18.49;65.47
57056;BME280;42945;51.718;5.324;2022-07-10T09:28:37;102433.81;;;18.40;65.57
57056;BME280;42945;51.718;5.324;2022-07-10T09:31:02;102392.34;;;18.17;66.30
57056;BME280;42945;51.718;5.324;2022-07-10T09:33:29;102437.47;;;18.39;65.47
57056;BME280;42945;51.718;5.324;2022-07-10T09:41:30;102447.84;;;18.30;65.59
57056;BME280;42945;51.718;5.324;2022-07-10T09:44:06;102418.94;;;17.78;66.06
57056;BME280;42945;51.718;5.324;2022-07-10T09:46:38;102402.19;;;17.60;66.96
57056;BME280;42945;51.718;5.324;2022-07-10T09:49:09;102317.09;;;16.90;67.27
57056;BME280;42945;51.718;5.324;2022-07-10T09:54:03;102420.84;;;18.46;65.08
57056;BME280;42945;51.718;5.324;2022-07-10T09:56:33;102383.28;;;18.99;63.69
57056;BME280;42945;51.718;5.324;2022-07-10T09:59:00;102389.19;;;19.17;62.41
57056;BME280;42945;51.718;5.324;2022-07-10T10:01:27;102414.72;;;19.12;62.50
57056;BME280;42945;51.718;5.324;2022-07-10T10:03:53;102390.16;;;18.91;61.73
57056;BME280;42945;51.718;5.324;2022-07-10T10:06:26;102421.25;;;18.67;63.28
57056;BME280;42945;51.718;5.324;2022-07-10T10:11:40;102439.88;;;19.11;63.61
57056;BME280;42945;51.718;5.324;2022-07-10T10:14:07;102400.94;;;19.42;62.06
57056;BME280;42945;51.718;5.324;2022-07-10T10:16:33;102369.84;;;19.25;62.48
57056;BME280;42945;51.718;5.324;2022-07-10T10:18:59;102274.78;;;19.00;61.32
57056;BME280;42945;51.718;5.324;2022-07-10T10:21:43;102321.41;;;19.25;62.59
57056;BME280;42945;51.718;5.324;2022-07-10T10:24:09;102298.09;;;19.25;60.68
57056;BME280;42945;51.718;5.324;2022-07-10T10:26:35;102403.72;;;19.92;62.13
57056;BME280;42945;51.718;5.324;2022-07-10T10:29:03;102405.16;;;19.72;61.37
57056;BME280;42945;51.718;5.324;2022-07-10T10:31:30;102399.28;;;18.88;62.51
57056;BME280;42945;51.718;5.324;2022-07-10T10:33:57;102405.78;;;19.24;62.92
57056;BME280;42945;51.718;5.324;2022-07-10T10:39:09;102405.03;;;19.47;60.91
57056;BME280;42945;51.718;5.324;2022-07-10T10:49:18;102383.94;;;19.16;61.85
57056;BME280;42945;51.718;5.324;2022-07-10T10:52:02;102318.13;;;18.56;63.11
57056;BME280;42945;51.718;5.324;2022-07-10T10:54:28;102264.78;;;19.02;61.68
57056;BME280;42945;51.718;5.324;2022-07-10T10:57:13;102386.50;;;20.18;61.09
57056;BME280;42945;51.718;5.324;2022-07-10T10:59:46;102414.47;;;20.29;61.21
57056;BME280;42945;51.718;5.324;2022-07-10T11:04:46;102407.25;;;20.05;60.46
57056;BME280;42945;51.718;5.324;2022-07-10T11:07:11;102374.56;;;19.85;61.26
57056;BME280;42945;51.718;5.324;2022-07-10T11:09:36;102300.22;;;19.83;59.47
57056;BME280;42945;51.718;5.324;2022-07-10T11:14:32;102398.69;;;20.11;60.15
57056;BME280;42945;51.718;5.324;2022-07-10T11:16:58;102475.22;;;19.96;60.42
57056;BME280;42945;51.718;5.324;2022-07-10T11:19:25;102253.06;;;19.40;59.68
57056;BME280;42945;51.718;5.324;2022-07-10T11:24:45;102405.00;;;20.60;59.42
57056;BME280;42945;51.718;5.324;2022-07-10T11:29:59;102354.78;;;19.98;58.32
57056;BME280;42945;51.718;5.324;2022-07-10T11:32:24;102375.13;;;20.02;59.48
57056;BME280;42945;51.718;5.324;2022-07-10T11:34:50;102398.09;;;20.32;59.70
57056;BME280;42945;51.718;5.324;2022-07-10T11:37:16;102405.22;;;19.83;60.42
57056;BME280;42945;51.718;5.324;2022-07-10T11:39:41;102335.56;;;19.65;60.05
57056;BME280;42945;51.718;5.324;2022-07-10T11:42:07;102209.84;;;18.81;61.56
57056;BME280;42945;51.718;5.324;2022-07-10T11:44:34;102354.69;;;19.37;62.55
57056;BME280;42945;51.718;5.324;2022-07-10T11:46:59;102380.56;;;19.63;61.16
57056;BME280;42945;51.718;5.324;2022-07-10T11:49:26;102353.66;;;19.89;61.35
57056;BME280;42945;51.718;5.324;2022-07-10T11:51:52;102283.00;;;19.23;60.44
57056;BME280;42945;51.718;5.324;2022-07-10T11:54:19;102373.09;;;19.93;60.74
57056;BME280;42945;51.718;5.324;2022-07-10T11:56:52;102251.13;;;19.42;60.59
57056;BME280;42945;51.718;5.324;2022-07-10T11:59:18;102226.00;;;19.92;59.76
57056;BME280;42945;51.718;5.324;2022-07-10T12:01:50;102382.22;;;20.40;59.95
57056;BME280;42945;51.718;5.324;2022-07-10T12:04:17;102321.34;;;20.13;59.29
57056;BME280;42945;51.718;5.324;2022-07-10T12:06:46;102368.63;;;19.80;60.07
57056;BME280;42945;51.718;5.324;2022-07-10T12:09:16;102369.34;;;19.95;58.61
57056;BME280;42945;51.718;5.324;2022-07-10T12:11:43;102310.84;;;20.21;59.31
57056;BME280;42945;51.718;5.324;2022-07-10T12:16:40;102309.03;;;20.57;57.23
57056;BME280;42945;51.718;5.324;2022-07-10T12:19:08;102383.00;;;20.05;59.44
57056;BME280;42945;51.718;5.324;2022-07-10T12:21:34;102378.03;;;20.36;59.10
57056;BME280;42945;51.718;5.324;2022-07-10T12:24:00;102298.59;;;20.53;59.22
57056;BME280;42945;51.718;5.324;2022-07-10T12:26:36;102339.63;;;20.21;59.02
57056;BME280;42945;51.718;5.324;2022-07-10T12:31:42;102338.34;;;20.62;57.68
57056;BME280;42945;51.718;5.324;2022-07-10T12:34:09;102401.53;;;20.58;57.93
57056;BME280;42945;51.718;5.324;2022-07-10T12:37:06;102374.50;;;20.59;57.16
57056;BME280;42945;51.718;5.324;2022-07-10T12:39:31;102302.84;;;20.79;57.19
57056;BME280;42945;51.718;5.324;2022-07-10T12:42:04;102348.00;;;21.00;56.95
57056;BME280;42945;51.718;5.324;2022-07-10T12:44:44;102238.66;;;20.38;57.13
57056;BME280;42945;51.718;5.324;2022-07-10T12:47:16;102371.06;;;21.04;56.09
57056;BME280;42945;51.718;5.324;2022-07-10T12:50:07;102248.16;;;20.19;54.76
57056;BME280;42945;51.718;5.324;2022-07-10T12:52:37;102262.31;;;21.03;53.58
57056;BME280;42945;51.718;5.324;2022-07-10T12:55:06;102509.97;;;22.03;55.14
57056;BME280;42945;51.718;5.324;2022-07-10T13:00:21;102218.16;;;20.93;53.41
57056;BME280;42945;51.718;5.324;2022-07-10T13:02:48;102350.88;;;21.43;54.59
57056;BME280;42945;51.718;5.324;2022-07-10T13:05:34;102256.91;;;21.26;53.07
57056;BME280;42945;51.718;5.324;2022-07-10T13:08:14;102329.13;;;21.79;53.60
57056;BME280;42945;51.718;5.324;2022-07-10T13:11:02;102338.13;;;21.57;54.38
57056;BME280;42945;51.718;5.324;2022-07-10T13:13:27;102327.03;;;21.82;53.03
57056;BME280;42945;51.718;5.324;2022-07-10T13:15:53;102341.75;;;22.01;53.18
57056;BME280;42945;51.718;5.324;2022-07-10T13:18:23;102241.94;;;21.11;54.07
57056;BME280;42945;51.718;5.324;2022-07-10T13:20:52;102476.59;;;22.70;53.56
57056;BME280;42945;51.718;5.324;2022-07-10T13:23:17;102362.94;;;22.28;52.67
57056;BME280;42945;51.718;5.324;2022-07-10T13:26:06;102669.13;;;22.06;53.21
57056;BME280;42945;51.718;5.324;2022-07-10T13:28:34;102251.00;;;21.32;51.64
57056;BME280;42945;51.718;5.324;2022-07-10T13:31:00;102284.06;;;22.23;52.26
57056;BME280;42945;51.718;5.324;2022-07-10T13:33:26;102356.47;;;22.73;52.38